sensor_id;sensor_type;location;lat;lon;timestamp;pressure;altitude;pressure_sealevel;temperature;humidity
58668;BME280;59852;43.086;25.634;2023-02-20T00:01:38;98985.03;;;11.27;55.22
58668;BME280;59852;43.086;25.634;2023-02-20T00:04:03;98981.59;;;11.13;54.41
58668;BME280;59852;43.086;25.634;2023-02-20T00:06:29;98983.06;;;11.05;55.11
58668;BME280;59852;43.086;25.634;2023-02-20T00:08:54;98996.66;;;11.35;55.02
58668;BME280;59852;43.086;25.634;2023-02-20T00:11:19;98988.81;;;11.10;55.34
58668;BME280;59852;43.086;25.634;2023-02-20T00:13:45;98999.47;;;11.19;54.37
58668;BME280;59852;43.086;25.634;2023-02-20T00:16:11;99003.59;;;10.98;55.03
58668;BME280;59852;43.086;25.634;2023-02-20T00:18:36;98990.19;;;11.15;55.52
58668;BME280;59852;43.086;25.634;2023-02-20T00:21:01;98982.53;;;11.00;55.76
58668;BME280;59852;43.086;25.634;2023-02-20T00:23:27;98982.03;;;11.07;55.14
58668;BME280;59852;43.086;25.634;2023-02-20T00:25:52;98986.19;;;11.10;55.31
58668;BME280;59852;43.086;25.634;2023-02-20T00:28:17;98982.81;;;11.20;54.54
58668;BME280;59852;43.086;25.634;2023-02-20T00:30:43;98982.34;;;11.15;54.89
58668;BME280;59852;43.086;25.634;2023-02-20T00:33:08;98988.53;;;11.02;55.70
58668;BME280;59852;43.086;25.634;2023-02-20T00:35:33;98988.13;;;10.95;56.19
58668;BME280;59852;43.086;25.634;2023-02-20T00:37:59;98982.63;;;11.11;55.19
58668;BME280;59852;43.086;25.634;2023-02-20T00:40:24;98995.22;;;11.06;55.17
58668;BME280;59852;43.086;25.634;2023-02-20T00:42:49;98989.78;;;10.83;55.67
58668;BME280;59852;43.086;25.634;2023-02-20T00:45:15;98992.41;;;10.96;55.86
58668;BME280;59852;43.086;25.634;2023-02-20T00:47:41;98989.69;;;10.85;55.85
58668;BME280;59852;43.086;25.634;2023-02-20T00:50:07;98992.19;;;10.86;55.76
58668;BME280;59852;43.086;25.634;2023-02-20T00:52:32;98984.31;;;10.99;55.89
58668;BME280;59852;43.086;25.634;2023-02-20T00:54:58;98986.19;;;11.10;55.72
58668;BME280;59852;43.086;25.634;2023-02-20T00:57:23;98991.44;;;11.10;56.01
58668;BME280;59852;43.086;25.634;2023-02-20T00:59:48;98984.97;;;10.90;56.26
58668;BME280;59852;43.086;25.634;2023-02-20T01:02:14;98991.88;;;10.66;56.65
58668;BME280;59852;43.086;25.634;2023-02-20T01:04:39;98999.94;;;10.75;56.87
58668;BME280;59852;43.086;25.634;2023-02-20T01:07:05;98988.31;;;10.54;56.98
58668;BME280;59852;43.086;25.634;2023-02-20T01:09:30;98997.00;;;10.80;57.43
58668;BME280;59852;43.086;25.634;2023-02-20T01:11:55;98989.78;;;10.83;56.76
58668;BME280;59852;43.086;25.634;2023-02-20T01:14:21;98994.38;;;10.80;56.63
58668;BME280;59852;43.086;25.634;2023-02-20T01:16:47;98986.88;;;10.62;56.69
58668;BME280;59852;43.086;25.634;2023-02-20T01:19:15;98996.69;;;10.84;56.30
58668;BME280;59852;43.086;25.634;2023-02-20T01:21:40;98993.31;;;10.44;58.28
58668;BME280;59852;43.086;25.634;2023-02-20T01:24:06;98989.88;;;10.56;57.70
58668;BME280;59852;43.086;25.634;2023-02-20T01:26:31;98990.41;;;10.74;57.71
58668;BME280;59852;43.086;25.634;2023-02-20T01:28:56;98990.63;;;10.84;56.71
58668;BME280;59852;43.086;25.634;2023-02-20T01:31:21;98993.31;;;10.57;57.71
58668;BME280;59852;43.086;25.634;2023-02-20T01:33:47;98997.63;;;10.71;57.18
58668;BME280;59852;43.086;25.634;2023-02-20T01:36:13;98987.69;;;10.63;58.14
58668;BME280;59852;43.086;25.634;2023-02-20T01:38:39;98976.28;;;10.64;56.88
58668;BME280;59852;43.086;25.634;2023-02-20T01:41:04;98983.59;;;10.33;58.60
58668;BME280;59852;43.086;25.634;2023-02-20T01:43:30;98980.97;;;10.46;58.09
58668;BME280;59852;43.086;25.634;2023-02-20T01:46:22;98978.75;;;10.40;58.73
58668;BME280;59852;43.086;25.634;2023-02-20T01:48:40;98972.72;;;10.52;58.53
58668;BME280;59852;43.086;25.634;2023-02-20T01:51:05;98960.38;;;10.54;58.17
58668;BME280;59852;43.086;25.634;2023-02-20T01:53:31;98964.00;;;10.26;58.88
58668;BME280;59852;43.086;25.634;2023-02-20T01:56:02;98964.69;;;10.16;59.37
58668;BME280;59852;43.086;25.634;2023-02-20T02:00:55;98952.31;;;10.45;58.74
58668;BME280;59852;43.086;25.634;2023-02-20T02:03:22;98965.78;;;10.39;58.71
58668;BME280;59852;43.086;25.634;2023-02-20T02:05:51;98954.91;;;10.32;58.39
58668;BME280;59852;43.086;25.634;2023-02-20T02:08:18;98959.63;;;10.27;58.36
58668;BME280;59852;43.086;25.634;2023-02-20T02:13:29;98966.97;;;10.07;59.02
58668;BME280;59852;43.086;25.634;2023-02-20T02:16:06;98966.84;;;10.09;59.16
58668;BME280;59852;43.086;25.634;2023-02-20T02:19:19;98965.91;;;10.10;58.63
58668;BME280;59852;43.086;25.634;2023-02-20T02:37:14;98971.25;;;10.09;58.74
58668;BME280;59852;43.086;25.634;2023-02-20T02:47:32;98956.34;;;9.84;58.68
58668;BME280;59852;43.086;25.634;2023-02-20T02:52:27;98973.84;;;10.09;57.36
58668;BME280;59852;43.086;25.634;2023-02-20T02:55:07;98976.97;;;10.01;58.24
58668;BME280;59852;43.086;25.634;2023-02-20T02:57:32;98981.53;;;9.85;58.81
58668;BME280;59852;43.086;25.634;2023-02-20T02:59:59;98990.72;;;9.90;59.05
58668;BME280;59852;43.086;25.634;2023-02-20T03:02:27;98993.66;;;9.86;58.96
58668;BME280;59852;43.086;25.634;2023-02-20T03:04:54;98987.59;;;9.85;60.14
58668;BME280;59852;43.086;25.634;2023-02-20T03:07:20;98988.13;;;9.90;59.72
58668;BME280;59852;43.086;25.634;2023-02-20T03:12:13;98990.59;;;9.79;59.73
58668;BME280;59852;43.086;25.634;2023-02-20T03:14:41;99000.69;;;9.71;59.40
58668;BME280;59852;43.086;25.634;2023-02-20T03:17:29;98985.91;;;9.84;59.13
58668;BME280;59852;43.086;25.634;2023-02-20T03:19:57;98981.78;;;9.53;59.08
58668;BME280;59852;43.086;25.634;2023-02-20T03:22:30;98984.84;;;9.74;59.13
58668;BME280;59852;43.086;25.634;2023-02-20T03:25:00;98974.75;;;9.68;58.67
58668;BME280;59852;43.086;25.634;2023-02-20T03:27:33;98971.31;;;9.67;58.68
58668;BME280;59852;43.086;25.634;2023-02-20T03:30:03;98974.19;;;9.77;58.44
58668;BME280;59852;43.086;25.634;2023-02-20T03:32:30;98982.44;;;9.57;59.07
58668;BME280;59852;43.086;25.634;2023-02-20T03:35:15;98986.84;;;9.56;58.91
58668;BME280;59852;43.086;25.634;2023-02-20T03:38:01;98992.00;;;9.70;59.26
58668;BME280;59852;43.086;25.634;2023-02-20T03:40:47;98995.03;;;9.50;59.17
58668;BME280;59852;43.086;25.634;2023-02-20T03:43:32;98990.13;;;9.72;58.90
58668;BME280;59852;43.086;25.634;2023-02-20T03:46:00;98995.69;;;9.54;59.39
58668;BME280;59852;43.086;25.634;2023-02-20T03:50:52;98999.22;;;9.53;59.42
58668;BME280;59852;43.086;25.634;2023-02-20T03:53:18;99012.59;;;9.48;59.66
58668;BME280;59852;43.086;25.634;2023-02-20T03:55:43;99005.31;;;9.39;59.70
58668;BME280;59852;43.086;25.634;2023-02-20T03:58:10;99016.81;;;9.36;59.57
58668;BME280;59852;43.086;25.634;2023-02-20T04:00:39;99022.56;;;9.41;59.61
58668;BME280;59852;43.086;25.634;2023-02-20T04:03:07;99033.06;;;9.68;59.52
58668;BME280;59852;43.086;25.634;2023-02-20T04:05:35;99045.97;;;9.57;59.61
58668;BME280;59852;43.086;25.634;2023-02-20T04:08:10;99051.94;;;9.45;60.09
58668;BME280;59852;43.086;25.634;2023-02-20T04:10:51;99056.22;;;9.46;59.73
58668;BME280;59852;43.086;25.634;2023-02-20T04:13:18;99057.72;;;9.36;60.06
58668;BME280;59852;43.086;25.634;2023-02-20T04:15:44;99057.06;;;9.32;60.48
58668;BME280;59852;43.086;25.634;2023-02-20T04:18:10;99070.50;;;9.55;60.23
58668;BME280;59852;43.086;25.634;2023-02-20T04:20:37;99082.41;;;9.59;60.39
58668;BME280;59852;43.086;25.634;2023-02-20T04:23:04;99077.84;;;9.19;61.36
58668;BME280;59852;43.086;25.634;2023-02-20T04:28:03;99088.09;;;9.23;60.64
58668;BME280;59852;43.086;25.634;2023-02-20T04:30:29;99097.31;;;9.14;61.25
58668;BME280;59852;43.086;25.634;2023-02-20T04:32:54;99103.31;;;9.30;60.53
58668;BME280;59852;43.086;25.634;2023-02-20T04:35:20;99103.66;;;9.24;60.43
58668;BME280;59852;43.086;25.634;2023-02-20T04:37:45;99103.66;;;9.10;61.17
58668;BME280;59852;43.086;25.634;2023-02-20T04:40:12;99093.88;;;9.13;60.80
58668;BME280;59852;43.086;25.634;2023-02-20T04:42:37;99093.22;;;8.96;60.27
58668;BME280;59852;43.086;25.634;2023-02-20T04:45:03;99106.16;;;8.97;60.25
58668;BME280;59852;43.086;25.634;2023-02-20T04:47:28;99110.59;;;8.81;60.75
58668;BME280;59852;43.086;25.634;2023-02-20T04:49:53;99104.44;;;8.82;60.37
58668;BME280;59852;43.086;25.634;2023-02-20T04:52:19;99102.56;;;8.70;61.61
58668;BME280;59852;43.086;25.634;2023-02-20T04:54:44;99112.94;;;8.85;61.07
58668;BME280;59852;43.086;25.634;2023-02-20T04:57:09;99112.34;;;8.66;61.85
58668;BME280;59852;43.086;25.634;2023-02-20T04:59:35;99116.72;;;8.66;62.00
58668;BME280;59852;43.086;25.634;2023-02-20T05:02:00;99114.53;;;9.02;61.29
58668;BME280;59852;43.086;25.634;2023-02-20T05:04:26;99125.50;;;8.79;61.41
58668;BME280;59852;43.086;25.634;2023-02-20T05:06:52;99127.19;;;8.64;62.34
58668;BME280;59852;43.086;25.634;2023-02-20T05:09:18;99133.72;;;8.87;60.86
58668;BME280;59852;43.086;25.634;2023-02-20T05:11:43;99151.06;;;8.72;61.36
58668;BME280;59852;43.086;25.634;2023-02-20T05:14:09;99154.50;;;8.88;60.70
58668;BME280;59852;43.086;25.634;2023-02-20T05:16:36;99163.16;;;8.89;61.33
58668;BME280;59852;43.086;25.634;2023-02-20T05:19:01;99171.91;;;8.88;60.56
58668;BME280;59852;43.086;25.634;2023-02-20T05:21:27;99184.88;;;8.89;60.94
58668;BME280;59852;43.086;25.634;2023-02-20T05:24:10;99187.38;;;8.91;61.31
58668;BME280;59852;43.086;25.634;2023-02-20T05:26:36;99193.63;;;8.88;60.34
58668;BME280;59852;43.086;25.634;2023-02-20T05:29:01;99190.09;;;8.74;60.91
58668;BME280;59852;43.086;25.634;2023-02-20T05:31:27;99197.69;;;8.62;60.57
58668;BME280;59852;43.086;25.634;2023-02-20T05:33:52;99208.72;;;8.68;59.99
58668;BME280;59852;43.086;25.634;2023-02-20T05:36:17;99218.72;;;8.59;60.23
58668;BME280;59852;43.086;25.634;2023-02-20T05:38:43;99216.28;;;8.72;60.08
58668;BME280;59852;43.086;25.634;2023-02-20T05:41:13;99216.34;;;8.86;59.09
58668;BME280;59852;43.086;25.634;2023-02-20T05:43:38;99220.31;;;8.62;60.13
58668;BME280;59852;43.086;25.634;2023-02-20T05:46:04;99232.09;;;8.53;60.41
58668;BME280;59852;43.086;25.634;2023-02-20T05:48:29;99228.97;;;8.78;60.13
58668;BME280;59852;43.086;25.634;2023-02-20T05:50:54;99231.03;;;9.03;59.70
58668;BME280;59852;43.086;25.634;2023-02-20T05:53:19;99220.84;;;9.14;59.83
58668;BME280;59852;43.086;25.634;2023-02-20T05:55:45;99234.66;;;10.03;57.15
58668;BME280;59852;43.086;25.634;2023-02-20T05:58:10;99233.00;;;11.77;53.02
58668;BME280;59852;43.086;25.634;2023-02-20T06:00:35;99236.88;;;11.59;51.77
58668;BME280;59852;43.086;25.634;2023-02-20T06:03:04;99236.91;;;13.07;47.39
58668;BME280;59852;43.086;25.634;2023-02-20T06:05:29;99240.25;;;13.79;45.21
58668;BME280;59852;43.086;25.634;2023-02-20T06:07:55;99244.59;;;12.97;46.94
58668;BME280;59852;43.086;25.634;2023-02-20T06:10:20;99260.22;;;14.15;44.02
58668;BME280;59852;43.086;25.634;2023-02-20T06:12:46;99262.25;;;12.71;46.17
58668;BME280;59852;43.086;25.634;2023-02-20T06:15:11;99266.19;;;12.89;46.32
58668;BME280;59852;43.086;25.634;2023-02-20T06:17:36;99272.75;;;12.09;48.59
58668;BME280;59852;43.086;25.634;2023-02-20T06:20:01;99282.53;;;12.20;47.74
58668;BME280;59852;43.086;25.634;2023-02-20T06:22:27;99285.41;;;13.73;43.46
58668;BME280;59852;43.086;25.634;2023-02-20T06:24:52;99286.66;;;12.60;45.93
58668;BME280;59852;43.086;25.634;2023-02-20T06:27:18;99269.53;;;11.80;46.68
58668;BME280;59852;43.086;25.634;2023-02-20T06:29:45;99280.31;;;12.39;46.24
58668;BME280;59852;43.086;25.634;2023-02-20T06:32:11;99280.28;;;11.23;47.70
58668;BME280;59852;43.086;25.634;2023-02-20T06:34:36;99288.72;;;10.46;49.94
58668;BME280;59852;43.086;25.634;2023-02-20T06:37:02;99294.06;;;10.85;48.76
58668;BME280;59852;43.086;25.634;2023-02-20T06:39:28;99287.97;;;10.44;48.96
58668;BME280;59852;43.086;25.634;2023-02-20T06:41:54;99284.09;;;9.78;50.34
58668;BME280;59852;43.086;25.634;2023-02-20T06:44:19;99286.28;;;10.14;49.34
58668;BME280;59852;43.086;25.634;2023-02-20T06:46:44;99295.09;;;10.27;49.70
58668;BME280;59852;43.086;25.634;2023-02-20T06:49:10;99292.16;;;10.18;50.80
58668;BME280;59852;43.086;25.634;2023-02-20T06:51:35;99288.03;;;9.85;51.32
58668;BME280;59852;43.086;25.634;2023-02-20T06:54:01;99290.16;;;9.64;51.68
58668;BME280;59852;43.086;25.634;2023-02-20T06:56:28;99286.00;;;10.04;50.83
58668;BME280;59852;43.086;25.634;2023-02-20T06:58:54;99289.78;;;9.70;51.63
58668;BME280;59852;43.086;25.634;2023-02-20T07:01:21;99291.00;;;9.65;51.50
58668;BME280;59852;43.086;25.634;2023-02-20T07:03:46;99284.97;;;10.07;50.76
58668;BME280;59852;43.086;25.634;2023-02-20T07:06:17;99296.72;;;9.86;51.14
58668;BME280;59852;43.086;25.634;2023-02-20T07:08:42;99298.38;;;9.87;50.51
58668;BME280;59852;43.086;25.634;2023-02-20T07:11:08;99304.25;;;9.90;50.51
58668;BME280;59852;43.086;25.634;2023-02-20T07:13:33;99308.00;;;9.86;50.43
58668;BME280;59852;43.086;25.634;2023-02-20T07:15:59;99319.84;;;9.92;50.57
58668;BME280;59852;43.086;25.634;2023-02-20T07:18:24;99321.59;;;10.50;48.77
58668;BME280;59852;43.086;25.634;2023-02-20T07:20:51;99333.97;;;10.18;50.00
58668;BME280;59852;43.086;25.634;2023-02-20T07:23:17;99344.34;;;10.19;50.83
58668;BME280;59852;43.086;25.634;2023-02-20T07:25:42;99340.50;;;10.11;50.15
58668;BME280;59852;43.086;25.634;2023-02-20T07:28:08;99338.97;;;10.37;49.62
58668;BME280;59852;43.086;25.634;2023-02-20T07:30:33;99350.56;;;10.32;48.99
58668;BME280;59852;43.086;25.634;2023-02-20T07:32:59;99359.34;;;10.46;49.71
58668;BME280;59852;43.086;25.634;2023-02-20T07:35:24;99359.25;;;10.33;49.38
58668;BME280;59852;43.086;25.634;2023-02-20T07:37:49;99347.44;;;10.83;48.68
58668;BME280;59852;43.086;25.634;2023-02-20T07:40:15;99353.91;;;10.49;48.59
58668;BME280;59852;43.086;25.634;2023-02-20T07:42:40;99356.56;;;10.90;48.04
58668;BME280;59852;43.086;25.634;2023-02-20T07:45:05;99358.03;;;12.15;45.87
58668;BME280;59852;43.086;25.634;2023-02-20T07:47:31;99358.75;;;11.52;46.97
58668;BME280;59852;43.086;25.634;2023-02-20T07:49:56;99355.75;;;12.23;44.31
58668;BME280;59852;43.086;25.634;2023-02-20T07:52:22;99350.41;;;11.72;46.09
58668;BME280;59852;43.086;25.634;2023-02-20T07:54:47;99353.31;;;11.94;44.94
58668;BME280;59852;43.086;25.634;2023-02-20T07:57:13;99356.16;;;11.77;45.87
58668;BME280;59852;43.086;25.634;2023-02-20T07:59:39;99347.22;;;11.27;46.12
58668;BME280;59852;43.086;25.634;2023-02-20T08:02:04;99350.94;;;12.29;43.80
58668;BME280;59852;43.086;25.634;2023-02-20T08:04:30;99347.28;;;12.81;43.55
58668;BME280;59852;43.086;25.634;2023-02-20T08:06:55;99368.03;;;11.16;45.37
58668;BME280;59852;43.086;25.634;2023-02-20T08:09:20;99365.50;;;10.73;47.08
58668;BME280;59852;43.086;25.634;2023-02-20T08:11:46;99362.88;;;10.73;47.54
58668;BME280;59852;43.086;25.634;2023-02-20T08:14:11;99365.09;;;10.22;47.94
58668;BME280;59852;43.086;25.634;2023-02-20T08:16:37;99385.09;;;10.52;47.87
58668;BME280;59852;43.086;25.634;2023-02-20T08:19:02;99379.97;;;10.50;47.21
58668;BME280;59852;43.086;25.634;2023-02-20T08:21:27;99388.84;;;10.33;47.21
58668;BME280;59852;43.086;25.634;2023-02-20T08:23:53;99390.72;;;10.60;47.08
58668;BME280;59852;43.086;25.634;2023-02-20T08:26:19;99386.47;;;10.15;48.22
58668;BME280;59852;43.086;25.634;2023-02-20T08:28:45;99400.47;;;9.84;48.46
58668;BME280;59852;43.086;25.634;2023-02-20T08:31:11;99396.31;;;10.40;47.39
58668;BME280;59852;43.086;25.634;2023-02-20T08:33:36;99405.06;;;9.94;48.76
58668;BME280;59852;43.086;25.634;2023-02-20T08:36:01;99414.09;;;9.89;49.02
58668;BME280;59852;43.086;25.634;2023-02-20T08:40:52;99415.56;;;10.09;48.42
58668;BME280;59852;43.086;25.634;2023-02-20T08:43:17;99423.44;;;9.93;48.77
58668;BME280;59852;43.086;25.634;2023-02-20T08:45:43;99408.00;;;10.04;49.41
58668;BME280;59852;43.086;25.634;2023-02-20T08:48:08;99422.47;;;10.40;48.24
58668;BME280;59852;43.086;25.634;2023-02-20T08:50:33;99412.19;;;10.06;49.26
58668;BME280;59852;43.086;25.634;2023-02-20T08:52:59;99405.38;;;10.77;47.45
58668;BME280;59852;43.086;25.634;2023-02-20T08:55:24;99412.66;;;10.57;47.66
58668;BME280;59852;43.086;25.634;2023-02-20T08:57:50;99403.00;;;11.01;46.45
58668;BME280;59852;43.086;25.634;2023-02-20T09:00:15;99398.47;;;10.76;46.63
58668;BME280;59852;43.086;25.634;2023-02-20T09:02:41;99399.94;;;10.80;46.49
58668;BME280;59852;43.086;25.634;2023-02-20T09:05:07;99402.84;;;10.89;46.17
58668;BME280;59852;43.086;25.634;2023-02-20T09:07:33;99414.41;;;11.14;45.16
58668;BME280;59852;43.086;25.634;2023-02-20T09:09:58;99407.59;;;11.11;46.19
58668;BME280;59852;43.086;25.634;2023-02-20T09:12:23;99395.66;;;10.79;46.31
58668;BME280;59852;43.086;25.634;2023-02-20T09:14:49;99392.66;;;10.85;47.07
58668;BME280;59852;43.086;25.634;2023-02-20T09:17:15;99393.25;;;10.76;46.29
58668;BME280;59852;43.086;25.634;2023-02-20T09:19:40;99393.41;;;10.87;46.37
58668;BME280;59852;43.086;25.634;2023-02-20T09:22:05;99391.94;;;10.54;46.08
58668;BME280;59852;43.086;25.634;2023-02-20T09:24:31;99389.47;;;10.94;46.26
58668;BME280;59852;43.086;25.634;2023-02-20T09:27:01;99386.22;;;10.76;46.90
58668;BME280;59852;43.086;25.634;2023-02-20T09:29:27;99409.00;;;10.88;45.96
58668;BME280;59852;43.086;25.634;2023-02-20T09:31:52;99399.22;;;10.78;46.16
58668;BME280;59852;43.086;25.634;2023-02-20T09:34:18;99396.97;;;10.57;46.28
58668;BME280;59852;43.086;25.634;2023-02-20T09:36:43;99397.44;;;10.50;47.13
58668;BME280;59852;43.086;25.634;2023-02-20T09:39:09;99404.81;;;10.86;45.71
58668;BME280;59852;43.086;25.634;2023-02-20T09:41:37;99417.31;;;10.81;45.47
58668;BME280;59852;43.086;25.634;2023-02-20T09:46:42;99411.63;;;10.60;47.20
58668;BME280;59852;43.086;25.634;2023-02-20T09:49:21;99405.41;;;10.62;46.55
58668;BME280;59852;43.086;25.634;2023-02-20T09:51:56;99409.66;;;11.06;45.82
58668;BME280;59852;43.086;25.634;2023-02-20T09:54:25;99409.66;;;10.49;47.06
58668;BME280;59852;43.086;25.634;2023-02-20T09:56:53;99411.66;;;10.74;46.22
58668;BME280;59852;43.086;25.634;2023-02-20T10:01:52;99416.88;;;10.74;46.01
58668;BME280;59852;43.086;25.634;2023-02-20T10:04:20;99412.84;;;10.97;46.01
58668;BME280;59852;43.086;25.634;2023-02-20T10:06:47;99413.88;;;10.95;46.35
58668;BME280;59852;43.086;25.634;2023-02-20T10:09:14;99416.75;;;11.04;45.96
58668;BME280;59852;43.086;25.634;2023-02-20T10:11:46;99418.34;;;11.21;46.08
58668;BME280;59852;43.086;25.634;2023-02-20T10:29:45;99394.47;;;11.53;44.56
58668;BME280;59852;43.086;25.634;2023-02-20T10:32:35;99382.63;;;11.06;43.90
58668;BME280;59852;43.086;25.634;2023-02-20T10:35:07;99391.38;;;11.60;44.63
58668;BME280;59852;43.086;25.634;2023-02-20T10:37:34;99385.09;;;11.75;44.35
58668;BME280;59852;43.086;25.634;2023-02-20T10:40:05;99377.97;;;11.77;43.52
58668;BME280;59852;43.086;25.634;2023-02-20T10:42:43;99365.25;;;11.59;43.56
58668;BME280;59852;43.086;25.634;2023-02-20T10:48:03;99384.19;;;11.49;43.76
58668;BME280;59852;43.086;25.634;2023-02-20T10:50:34;99380.88;;;11.33;43.38
58668;BME280;59852;43.086;25.634;2023-02-20T10:53:06;99380.91;;;10.92;43.72
58668;BME280;59852;43.086;25.634;2023-02-20T10:58:04;99371.78;;;11.12;44.60
58668;BME280;59852;43.086;25.634;2023-02-20T11:00:39;99375.09;;;11.01;44.61
58668;BME280;59852;43.086;25.634;2023-02-20T11:03:07;99362.97;;;11.40;44.58
58668;BME280;59852;43.086;25.634;2023-02-20T11:05:37;99366.28;;;11.56;43.88
58668;BME280;59852;43.086;25.634;2023-02-20T11:08:05;99373.72;;;11.89;43.40
58668;BME280;59852;43.086;25.634;2023-02-20T11:10:30;99371.19;;;11.48;43.52
58668;BME280;59852;43.086;25.634;2023-02-20T11:12:57;99381.84;;;11.72;43.59
58668;BME280;59852;43.086;25.634;2023-02-20T11:15:31;99376.03;;;11.81;43.77
58668;BME280;59852;43.086;25.634;2023-02-20T11:17:57;99388.66;;;11.74;42.66
58668;BME280;59852;43.086;25.634;2023-02-20T11:22:57;99395.34;;;11.80;43.35
58668;BME280;59852;43.086;25.634;2023-02-20T11:27:55;99380.75;;;11.89;42.64
58668;BME280;59852;43.086;25.634;2023-02-20T11:30:31;99387.47;;;11.80;43.11
58668;BME280;59852;43.086;25.634;2023-02-20T11:33:05;99391.47;;;11.32;42.08
58668;BME280;59852;43.086;25.634;2023-02-20T11:35:38;99395.88;;;11.31;42.56
58668;BME280;59852;43.086;25.634;2023-02-20T11:40:38;99390.28;;;11.23;42.32
58668;BME280;59852;43.086;25.634;2023-02-20T11:45:39;99402.16;;;11.83;42.22
58668;BME280;59852;43.086;25.634;2023-02-20T11:48:15;99385.59;;;12.07;42.40
58668;BME280;59852;43.086;25.634;2023-02-20T11:53:06;99395.13;;;11.69;42.40
58668;BME280;59852;43.086;25.634;2023-02-20T11:55:41;99392.34;;;11.72;42.37
58668;BME280;59852;43.086;25.634;2023-02-20T11:58:07;99392.34;;;11.72;41.70
58668;BME280;59852;43.086;25.634;2023-02-20T12:00:45;99376.28;;;11.64;42.58
58668;BME280;59852;43.086;25.634;2023-02-20T12:03:17;99374.88;;;11.58;42.51
58668;BME280;59852;43.086;25.634;2023-02-20T12:05:45;99369.47;;;11.61;42.09
58668;BME280;59852;43.086;25.634;2023-02-20T12:10:58;99372.03;;;11.48;42.10
58668;BME280;59852;43.086;25.634;2023-02-20T12:13:26;99366.88;;;11.47;42.08
58668;BME280;59852;43.086;25.634;2023-02-20T12:15:58;99361.59;;;11.34;42.12
58668;BME280;59852;43.086;25.634;2023-02-20T12:26:24;99357.69;;;11.54;42.20
58668;BME280;59852;43.086;25.634;2023-02-20T12:31:57;99360.22;;;11.56;41.38
58668;BME280;59852;43.086;25.634;2023-02-20T12:34:39;99356.81;;;11.41;41.38
58668;BME280;59852;43.086;25.634;2023-02-20T12:44:44;99374.34;;;11.53;41.15
58668;BME280;59852;43.086;25.634;2023-02-20T12:47:29;99366.53;;;11.66;40.92
58668;BME280;59852;43.086;25.634;2023-02-20T12:57:45;99372.59;;;11.66;41.17
58668;BME280;59852;43.086;25.634;2023-02-20T13:02:45;99365.19;;;11.73;40.09
58668;BME280;59852;43.086;25.634;2023-02-20T13:05:13;99372.84;;;11.76;40.73
58668;BME280;59852;43.086;25.634;2023-02-20T13:10:14;99357.41;;;11.32;40.62
58668;BME280;59852;43.086;25.634;2023-02-20T13:12:40;99361.72;;;11.72;40.03
58668;BME280;59852;43.086;25.634;2023-02-20T13:22:34;99376.59;;;11.32;40.92
58668;BME280;59852;43.086;25.634;2023-02-20T13:27:43;99363.81;;;11.40;40.52
58668;BME280;59852;43.086;25.634;2023-02-20T13:30:19;99355.91;;;11.28;40.59
58668;BME280;59852;43.086;25.634;2023-02-20T13:32:44;99372.19;;;11.33;40.97
58668;BME280;59852;43.086;25.634;2023-02-20T13:37:54;99356.63;;;11.44;40.90
58668;BME280;59852;43.086;25.634;2023-02-20T13:56:24;99373.88;;;11.34;39.77
58668;BME280;59852;43.086;25.634;2023-02-20T13:58:50;99378.84;;;11.24;39.64
58668;BME280;59852;43.086;25.634;2023-02-20T14:01:15;99381.31;;;11.13;39.55
58668;BME280;59852;43.086;25.634;2023-02-20T14:03:41;99372.03;;;11.22;40.61
58668;BME280;59852;43.086;25.634;2023-02-20T14:08:37;99381.72;;;10.93;40.15
58668;BME280;59852;43.086;25.634;2023-02-20T14:11:10;99380.59;;;10.97;40.16
58668;BME280;59852;43.086;25.634;2023-02-20T14:13:37;99377.59;;;11.03;39.68
58668;BME280;59852;43.086;25.634;2023-02-20T14:16:03;99379.69;;;10.83;41.54
58668;BME280;59852;43.086;25.634;2023-02-20T14:18:33;99372.47;;;11.01;40.43
58668;BME280;59852;43.086;25.634;2023-02-20T14:21:15;99388.06;;;11.03;40.48
58668;BME280;59852;43.086;25.634;2023-02-20T14:23:42;99386.03;;;10.79;40.93
58668;BME280;59852;43.086;25.634;2023-02-20T14:26:20;99382.63;;;11.06;39.68
58668;BME280;59852;43.086;25.634;2023-02-20T14:28:47;99381.31;;;10.99;39.78
58668;BME280;59852;43.086;25.634;2023-02-20T14:33:45;99384.94;;;10.55;40.07
58668;BME280;59852;43.086;25.634;2023-02-20T14:36:32;99381.75;;;10.50;39.73
58668;BME280;59852;43.086;25.634;2023-02-20T14:41:55;99387.16;;;10.75;40.35
58668;BME280;59852;43.086;25.634;2023-02-20T14:44:21;99391.66;;;10.73;40.74
58668;BME280;59852;43.086;25.634;2023-02-20T14:46:49;99397.53;;;10.77;40.22
58668;BME280;59852;43.086;25.634;2023-02-20T14:49:16;99388.28;;;10.57;40.49
58668;BME280;59852;43.086;25.634;2023-02-20T14:51:46;99394.38;;;10.72;40.29
58668;BME280;59852;43.086;25.634;2023-02-20T14:54:17;99384.47;;;10.62;39.51
58668;BME280;59852;43.086;25.634;2023-02-20T14:56:43;99396.59;;;10.35;40.21
58668;BME280;59852;43.086;25.634;2023-02-20T14:59:42;99392.31;;;10.34;40.41
58668;BME280;59852;43.086;25.634;2023-02-20T15:02:10;99392.34;;;10.18;39.30
58668;BME280;59852;43.086;25.634;2023-02-20T15:04:48;99398.53;;;10.31;38.35
58668;BME280;59852;43.086;25.634;2023-02-20T15:07:14;99399.22;;;10.35;39.37
58668;BME280;59852;43.086;25.634;2023-02-20T15:09:41;99390.06;;;10.12;39.32
58668;BME280;59852;43.086;25.634;2023-02-20T15:12:07;99390.72;;;10.46;38.46
58668;BME280;59852;43.086;25.634;2023-02-20T15:14:42;99388.38;;;10.27;39.34
58668;BME280;59852;43.086;25.634;2023-02-20T15:17:22;99396.75;;;9.88;39.19
58668;BME280;59852;43.086;25.634;2023-02-20T15:19:47;99400.22;;;10.02;39.56
58668;BME280;59852;43.086;25.634;2023-02-20T15:22:33;99388.28;;;9.98;38.86
58668;BME280;59852;43.086;25.634;2023-02-20T15:30:28;99403.66;;;9.89;38.28
58668;BME280;59852;43.086;25.634;2023-02-20T15:32:53;99404.59;;;9.88;38.60